sensor_id;sensor_type;location;lat;lon;timestamp;pressure;altitude;pressure_sealevel;temperature;humidity
72086;BME280;64750;52.134;5.424;2023-12-07T00:00:38;102218.84;;;1.63;87.22
72086;BME280;64750;52.134;5.424;2023-12-07T00:03:04;102208.47;;;1.61;86.94
72086;BME280;64750;52.134;5.424;2023-12-07T00:05:33;102206.72;;;1.59;86.76
72086;BME280;64750;52.134;5.424;2023-12-07T00:08:00;102209.31;;;1.59;86.19
72086;BME280;64750;52.134;5.424;2023-12-07T00:10:26;102211.91;;;1.59;86.68
72086;BME280;64750;52.134;5.424;2023-12-07T00:12:53;102211.06;;;1.58;86.62
72086;BME280;64750;52.134;5.424;2023-12-07T00:15:19;102213.66;;;1.52;86.41
72086;BME280;64750;52.134;5.424;2023-12-07T00:17:45;102220.56;;;1.38;86.62
72086;BME280;64750;52.134;5.424;2023-12-07T00:20:12;102217.13;;;1.42;86.87
72086;BME280;64750;52.134;5.424;2023-12-07T00:22:38;102224.88;;;1.43;86.59
72086;BME280;64750;52.134;5.424;2023-12-07T00:25:08;102215.41;;;1.44;86.65
72086;BME280;64750;52.134;5.424;2023-12-07T00:27:34;102217.97;;;1.45;86.61
72086;BME280;64750;52.134;5.424;2023-12-07T00:30:01;102210.19;;;1.47;86.99
72086;BME280;64750;52.134;5.424;2023-12-07T00:32:27;102201.59;;;1.45;86.76
72086;BME280;64750;52.134;5.424;2023-12-07T00:34:54;102203.31;;;1.43;86.66
72086;BME280;64750;52.134;5.424;2023-12-07T00:37:21;102200.72;;;1.43;86.98
72086;BME280;64750;52.134;5.424;2023-12-07T00:39:47;102210.22;;;1.44;86.56
72086;BME280;64750;52.134;5.424;2023-12-07T00:42:14;102198.09;;;1.46;86.39
72086;BME280;64750;52.134;5.424;2023-12-07T00:44:41;102198.13;;;1.49;86.59
72086;BME280;64750;52.134;5.424;2023-12-07T00:47:08;102194.66;;;1.50;86.59
72086;BME280;64750;52.134;5.424;2023-12-07T00:49:37;102205.03;;;1.55;86.21
72086;BME280;64750;52.134;5.424;2023-12-07T00:52:04;102205.00;;;1.41;86.58
72086;BME280;64750;52.134;5.424;2023-12-07T00:54:31;102202.44;;;1.41;86.45
72086;BME280;64750;52.134;5.424;2023-12-07T00:56:58;102203.31;;;1.40;86.47
72086;BME280;64750;52.134;5.424;2023-12-07T00:59:24;102205.03;;;1.35;86.47
72086;BME280;64750;52.134;5.424;2023-12-07T01:01:51;102199.88;;;1.35;86.62
72086;BME280;64750;52.134;5.424;2023-12-07T01:04:17;102201.59;;;1.39;86.42
72086;BME280;64750;52.134;5.424;2023-12-07T01:06:44;102201.56;;;1.40;86.40
72086;BME280;64750;52.134;5.424;2023-12-07T01:09:11;102199.84;;;1.33;85.76
72086;BME280;64750;52.134;5.424;2023-12-07T01:11:39;102198.13;;;1.34;85.93
72086;BME280;64750;52.134;5.424;2023-12-07T01:14:09;102202.41;;;1.27;85.68
72086;BME280;64750;52.134;5.424;2023-12-07T01:16:37;102205.00;;;1.19;85.46
72086;BME280;64750;52.134;5.424;2023-12-07T01:19:03;102214.50;;;1.20;85.81
72086;BME280;64750;52.134;5.424;2023-12-07T01:21:30;102210.19;;;1.16;85.44
72086;BME280;64750;52.134;5.424;2023-12-07T01:23:56;102211.03;;;1.15;85.94
72086;BME280;64750;52.134;5.424;2023-12-07T01:26:38;102209.34;;;1.17;86.09
72086;BME280;64750;52.134;5.424;2023-12-07T01:29:05;102221.41;;;1.15;85.64
72086;BME280;64750;52.134;5.424;2023-12-07T01:31:32;102214.50;;;1.14;86.10
72086;BME280;64750;52.134;5.424;2023-12-07T01:33:58;102217.94;;;1.19;86.40
72086;BME280;64750;52.134;5.424;2023-12-07T01:36:25;102219.69;;;1.22;85.79
72086;BME280;64750;52.134;5.424;2023-12-07T01:38:51;102217.09;;;1.22;86.48
72086;BME280;64750;52.134;5.424;2023-12-07T01:41:18;102226.59;;;1.15;85.89
72086;BME280;64750;52.134;5.424;2023-12-07T01:43:47;102219.69;;;1.12;86.51
72086;BME280;64750;52.134;5.424;2023-12-07T01:46:15;102219.69;;;1.17;86.37
72086;BME280;64750;52.134;5.424;2023-12-07T01:48:43;102231.75;;;1.17;86.79
72086;BME280;64750;52.134;5.424;2023-12-07T01:51:10;102222.28;;;1.17;86.17
72086;BME280;64750;52.134;5.424;2023-12-07T01:53:39;102227.44;;;1.20;86.52
72086;BME280;64750;52.134;5.424;2023-12-07T01:56:06;102222.28;;;1.22;86.51
72086;BME280;64750;52.134;5.424;2023-12-07T01:58:34;102229.19;;;1.21;86.08
72086;BME280;64750;52.134;5.424;2023-12-07T02:01:02;102227.44;;;1.20;86.77
72086;BME280;64750;52.134;5.424;2023-12-07T02:03:31;102227.47;;;1.17;86.36
72086;BME280;64750;52.134;5.424;2023-12-07T02:05:58;102225.72;;;1.10;86.51
72086;BME280;64750;52.134;5.424;2023-12-07T02:08:24;102227.44;;;1.11;86.54
72086;BME280;64750;52.134;5.424;2023-12-07T02:10:51;102226.59;;;1.12;86.62
72086;BME280;64750;52.134;5.424;2023-12-07T02:13:20;102221.41;;;1.17;86.31
72086;BME280;64750;52.134;5.424;2023-12-07T02:15:47;102223.16;;;1.21;85.95
72086;BME280;64750;52.134;5.424;2023-12-07T02:23:24;102217.09;;;1.03;86.33
72086;BME280;64750;52.134;5.424;2023-12-07T02:26:11;102219.66;;;0.98;86.08
72086;BME280;64750;52.134;5.424;2023-12-07T02:28:39;102218.81;;;0.96;85.55
72086;BME280;64750;52.134;5.424;2023-12-07T02:31:06;102225.72;;;0.99;86.04
72086;BME280;64750;52.134;5.424;2023-12-07T02:33:32;102221.38;;;0.93;85.81
72086;BME280;64750;52.134;5.424;2023-12-07T02:35:59;102225.69;;;1.01;86.38
72086;BME280;64750;52.134;5.424;2023-12-07T02:38:26;102224.00;;;1.06;85.67
72086;BME280;64750;52.134;5.424;2023-12-07T02:40:55;102223.13;;;1.01;86.02
72086;BME280;64750;52.134;5.424;2023-12-07T02:43:23;102226.59;;;1.04;86.48
72086;BME280;64750;52.134;5.424;2023-12-07T02:45:49;102229.16;;;1.07;86.53
72086;BME280;64750;52.134;5.424;2023-12-07T02:48:16;102219.69;;;1.09;86.74
72086;BME280;64750;52.134;5.424;2023-12-07T02:50:43;102216.19;;;1.01;86.28
72086;BME280;64750;52.134;5.424;2023-12-07T02:53:10;102210.16;;;0.94;85.94
72086;BME280;64750;52.134;5.424;2023-12-07T02:55:37;102214.47;;;0.95;86.30
72086;BME280;64750;52.134;5.424;2023-12-07T02:58:03;102207.56;;;1.04;86.92
72086;BME280;64750;52.134;5.424;2023-12-07T03:00:30;102207.56;;;1.02;86.62
72086;BME280;64750;52.134;5.424;2023-12-07T03:02:57;102213.59;;;1.01;86.98
72086;BME280;64750;52.134;5.424;2023-12-07T03:05:23;102215.34;;;0.99;86.42
72086;BME280;64750;52.134;5.424;2023-12-07T03:07:49;102207.59;;;0.97;86.38
72086;BME280;64750;52.134;5.424;2023-12-07T03:10:16;102217.91;;;0.96;87.01
72086;BME280;64750;52.134;5.424;2023-12-07T03:12:43;102227.41;;;0.98;87.06
72086;BME280;64750;52.134;5.424;2023-12-07T03:15:09;102222.25;;;1.03;86.78
72086;BME280;64750;52.134;5.424;2023-12-07T03:17:36;102219.66;;;0.95;86.69
72086;BME280;64750;52.134;5.424;2023-12-07T03:20:03;102223.09;;;0.94;86.70
72086;BME280;64750;52.134;5.424;2023-12-07T03:22:34;102219.66;;;0.94;86.81
72086;BME280;64750;52.134;5.424;2023-12-07T03:25:01;102228.28;;;0.91;87.46
72086;BME280;64750;52.134;5.424;2023-12-07T03:27:28;102233.47;;;0.91;87.22
72086;BME280;64750;52.134;5.424;2023-12-07T03:29:55;102226.56;;;0.95;87.09
72086;BME280;64750;52.134;5.424;2023-12-07T03:32:21;102226.56;;;0.96;87.41
72086;BME280;64750;52.134;5.424;2023-12-07T03:34:48;102223.09;;;0.93;87.27
72086;BME280;64750;52.134;5.424;2023-12-07T03:37:15;102225.69;;;0.91;86.80
72086;BME280;64750;52.134;5.424;2023-12-07T03:39:42;102237.75;;;0.89;87.37
72086;BME280;64750;52.134;5.424;2023-12-07T03:42:09;102225.66;;;0.85;87.00
72086;BME280;64750;52.134;5.424;2023-12-07T03:44:55;102231.69;;;0.86;86.94
72086;BME280;64750;52.134;5.424;2023-12-07T03:47:22;102235.16;;;0.89;86.78
72086;BME280;64750;52.134;5.424;2023-12-07T03:49:48;102235.16;;;0.86;87.19
72086;BME280;64750;52.134;5.424;2023-12-07T03:52:15;102237.75;;;0.86;87.04
72086;BME280;64750;52.134;5.424;2023-12-07T03:54:41;102238.63;;;0.90;87.09
72086;BME280;64750;52.134;5.424;2023-12-07T03:57:08;102234.31;;;0.90;87.60
72086;BME280;64750;52.134;5.424;2023-12-07T03:59:36;102230.88;;;0.94;87.03
72086;BME280;64750;52.134;5.424;2023-12-07T04:02:03;102227.44;;;0.92;86.59
72086;BME280;64750;52.134;5.424;2023-12-07T04:04:30;102227.44;;;0.92;87.25
72086;BME280;64750;52.134;5.424;2023-12-07T04:06:57;102225.66;;;0.88;87.21
72086;BME280;64750;52.134;5.424;2023-12-07T04:09:23;102231.69;;;0.87;86.97
72086;BME280;64750;52.134;5.424;2023-12-07T04:11:50;102232.59;;;0.88;87.21
72086;BME280;64750;52.134;5.424;2023-12-07T04:14:16;102238.63;;;0.90;86.53
72086;BME280;64750;52.134;5.424;2023-12-07T04:16:43;102236.03;;;0.88;87.08
72086;BME280;64750;52.134;5.424;2023-12-07T04:19:09;102234.28;;;0.84;87.39
72086;BME280;64750;52.134;5.424;2023-12-07T04:21:36;102236.88;;;0.87;87.13
72086;BME280;64750;52.134;5.424;2023-12-07T04:24:02;102227.41;;;0.89;87.20
72086;BME280;64750;52.134;5.424;2023-12-07T04:26:30;102230.00;;;0.89;87.03
72086;BME280;64750;52.134;5.424;2023-12-07T04:28:56;102231.72;;;0.89;87.34
72086;BME280;64750;52.134;5.424;2023-12-07T04:31:22;102230.84;;;0.88;87.16
72086;BME280;64750;52.134;5.424;2023-12-07T04:33:49;102236.03;;;0.85;87.59
72086;BME280;64750;52.134;5.424;2023-12-07T04:36:16;102232.59;;;0.88;87.38
72086;BME280;64750;52.134;5.424;2023-12-07T04:38:42;102235.16;;;0.88;87.33
72086;BME280;64750;52.134;5.424;2023-12-07T04:41:09;102231.72;;;0.89;87.12
72086;BME280;64750;52.134;5.424;2023-12-07T04:43:35;102237.78;;;0.92;87.56
72086;BME280;64750;52.134;5.424;2023-12-07T04:46:02;102229.13;;;0.93;87.59
72086;BME280;64750;52.134;5.424;2023-12-07T04:48:30;102234.34;;;0.96;87.00
72086;BME280;64750;52.134;5.424;2023-12-07T04:50:57;102231.75;;;0.96;87.36
72086;BME280;64750;52.134;5.424;2023-12-07T04:53:23;102227.41;;;0.95;87.96
72086;BME280;64750;52.134;5.424;2023-12-07T04:55:50;102234.31;;;0.90;87.67
72086;BME280;64750;52.134;5.424;2023-12-07T04:58:17;102230.84;;;0.88;87.31
72086;BME280;64750;52.134;5.424;2023-12-07T05:00:43;102223.94;;;0.87;87.91
72086;BME280;64750;52.134;5.424;2023-12-07T05:03:10;102228.25;;;0.87;87.33
72086;BME280;64750;52.134;5.424;2023-12-07T05:05:36;102216.16;;;0.87;87.52
72086;BME280;64750;52.134;5.424;2023-12-07T05:08:03;102230.84;;;0.85;87.37
72086;BME280;64750;52.134;5.424;2023-12-07T05:10:30;102215.31;;;0.87;87.93
72086;BME280;64750;52.134;5.424;2023-12-07T05:12:56;102223.94;;;0.81;87.99
72086;BME280;64750;52.134;5.424;2023-12-07T05:15:23;102219.63;;;0.78;87.99
72086;BME280;64750;52.134;5.424;2023-12-07T05:17:51;102215.28;;;0.79;88.11
72086;BME280;64750;52.134;5.424;2023-12-07T05:20:17;102217.03;;;0.83;88.85
72086;BME280;64750;52.134;5.424;2023-12-07T05:22:48;102217.88;;;0.82;88.63
72086;BME280;64750;52.134;5.424;2023-12-07T05:25:15;102211.84;;;0.85;89.00
72086;BME280;64750;52.134;5.424;2023-12-07T05:27:42;102213.59;;;0.84;88.93
72086;BME280;64750;52.134;5.424;2023-12-07T05:30:08;102207.50;;;0.70;88.56
72086;BME280;64750;52.134;5.424;2023-12-07T05:32:36;102211.84;;;0.71;88.94
72086;BME280;64750;52.134;5.424;2023-12-07T05:35:04;102207.50;;;0.74;89.14
72086;BME280;64750;52.134;5.424;2023-12-07T05:37:32;102217.03;;;0.80;89.42
72086;BME280;64750;52.134;5.424;2023-12-07T05:39:58;102209.25;;;0.81;89.00
72086;BME280;64750;52.134;5.424;2023-12-07T05:42:25;102209.25;;;0.81;89.69
72086;BME280;64750;52.134;5.424;2023-12-07T05:44:51;102211.84;;;0.85;89.30
72086;BME280;64750;52.134;5.424;2023-12-07T05:47:18;102212.72;;;0.87;89.71
72086;BME280;64750;52.134;5.424;2023-12-07T05:49:44;102204.97;;;0.85;90.13
72086;BME280;64750;52.134;5.424;2023-12-07T05:52:11;102207.53;;;0.82;89.79
72086;BME280;64750;52.134;5.424;2023-12-07T05:54:39;102207.53;;;0.82;89.66
72086;BME280;64750;52.134;5.424;2023-12-07T05:57:08;102205.81;;;0.86;89.81
72086;BME280;64750;52.134;5.424;2023-12-07T05:59:38;102206.69;;;0.86;90.45
72086;BME280;64750;52.134;5.424;2023-12-07T06:02:08;102204.97;;;0.88;90.59
72086;BME280;64750;52.134;5.424;2023-12-07T06:04:35;102211.91;;;0.92;90.56
72086;BME280;64750;52.134;5.424;2023-12-07T06:07:01;102201.53;;;0.92;90.68
72086;BME280;64750;52.134;5.424;2023-12-07T06:09:28;102211.91;;;0.92;90.43
72086;BME280;64750;52.134;5.424;2023-12-07T06:11:55;102211.00;;;0.93;90.99
72086;BME280;64750;52.134;5.424;2023-12-07T06:14:22;102217.94;;;0.91;90.70
72086;BME280;64750;52.134;5.424;2023-12-07T06:16:49;102218.78;;;0.90;91.14
72086;BME280;64750;52.134;5.424;2023-12-07T06:19:15;102226.56;;;0.89;91.38
72086;BME280;64750;52.134;5.424;2023-12-07T06:21:43;102229.13;;;0.90;91.48
72086;BME280;64750;52.134;5.424;2023-12-07T06:24:10;102234.31;;;0.90;91.58
72086;BME280;64750;52.134;5.424;2023-12-07T06:26:37;102223.09;;;0.90;91.54
72086;BME280;64750;52.134;5.424;2023-12-07T06:29:03;102235.19;;;0.92;91.81
72086;BME280;64750;52.134;5.424;2023-12-07T06:31:29;102239.50;;;0.90;91.89
72086;BME280;64750;52.134;5.424;2023-12-07T06:33:56;102229.97;;;0.91;91.98
72086;BME280;64750;52.134;5.424;2023-12-07T06:36:23;102234.31;;;0.92;91.82
72086;BME280;64750;52.134;5.424;2023-12-07T06:38:50;102236.03;;;0.90;92.08
72086;BME280;64750;52.134;5.424;2023-12-07T06:41:16;102227.41;;;0.89;92.23
72086;BME280;64750;52.134;5.424;2023-12-07T06:43:43;102232.59;;;0.92;92.29
72086;BME280;64750;52.134;5.424;2023-12-07T06:46:12;102233.47;;;0.90;92.13
72086;BME280;64750;52.134;5.424;2023-12-07T06:48:40;102228.28;;;0.91;92.67
72086;BME280;64750;52.134;5.424;2023-12-07T06:51:07;102238.63;;;0.96;92.85
72086;BME280;64750;52.134;5.424;2023-12-07T06:53:33;102235.19;;;0.94;92.56
72086;BME280;64750;52.134;5.424;2023-12-07T06:56:00;102235.16;;;0.89;92.74
72086;BME280;64750;52.134;5.424;2023-12-07T06:58:26;102233.44;;;0.88;92.93
72086;BME280;64750;52.134;5.424;2023-12-07T07:00:53;102233.44;;;0.85;93.15
72086;BME280;64750;52.134;5.424;2023-12-07T07:03:19;102239.47;;;0.84;93.17
72086;BME280;64750;52.134;5.424;2023-12-07T07:05:46;102233.44;;;0.84;93.04
72086;BME280;64750;52.134;5.424;2023-12-07T07:08:12;102229.97;;;0.83;93.29
72086;BME280;64750;52.134;5.424;2023-12-07T07:10:39;102231.72;;;0.81;93.06
72086;BME280;64750;52.134;5.424;2023-12-07T07:13:05;102227.38;;;0.80;93.49
72086;BME280;64750;52.134;5.424;2023-12-07T07:15:33;102221.31;;;0.78;93.21
72086;BME280;64750;52.134;5.424;2023-12-07T07:18:00;102229.13;;;0.81;93.32
72086;BME280;64750;52.134;5.424;2023-12-07T07:20:27;102238.63;;;0.85;92.97
72086;BME280;64750;52.134;5.424;2023-12-07T07:22:54;102231.69;;;0.82;92.77
72086;BME280;64750;52.134;5.424;2023-12-07T07:25:20;102244.66;;;0.81;92.46
72086;BME280;64750;52.134;5.424;2023-12-07T07:27:47;102240.31;;;0.80;93.05
72086;BME280;64750;52.134;5.424;2023-12-07T07:30:13;102242.03;;;0.79;92.88
72086;BME280;64750;52.134;5.424;2023-12-07T07:32:40;102236.00;;;0.82;93.11
72086;BME280;64750;52.134;5.424;2023-12-07T07:35:07;102248.97;;;0.85;93.03
72086;BME280;64750;52.134;5.424;2023-12-07T07:37:34;102255.00;;;0.86;93.17
72086;BME280;64750;52.134;5.424;2023-12-07T07:40:01;102252.41;;;0.87;93.12
72086;BME280;64750;52.134;5.424;2023-12-07T07:42:33;102239.47;;;0.86;92.99
72086;BME280;64750;52.134;5.424;2023-12-07T07:44:59;102242.91;;;0.83;93.27
72086;BME280;64750;52.134;5.424;2023-12-07T07:47:26;102243.75;;;0.80;93.08
72086;BME280;64750;52.134;5.424;2023-12-07T07:49:53;102242.91;;;0.80;93.47
72086;BME280;64750;52.134;5.424;2023-12-07T07:52:19;102243.75;;;0.80;93.32
72086;BME280;64750;52.134;5.424;2023-12-07T07:54:45;102248.94;;;0.80;92.72
72086;BME280;64750;52.134;5.424;2023-12-07T07:57:12;102251.53;;;0.79;93.09
72086;BME280;64750;52.134;5.424;2023-12-07T07:59:38;102258.44;;;0.80;93.40
72086;BME280;64750;52.134;5.424;2023-12-07T08:02:05;102249.78;;;0.78;93.11
72086;BME280;64750;52.134;5.424;2023-12-07T08:04:32;102256.69;;;0.74;92.90
72086;BME280;64750;52.134;5.424;2023-12-07T08:06:58;102248.03;;;0.68;93.02
72086;BME280;64750;52.134;5.424;2023-12-07T08:09:25;102251.50;;;0.70;92.82
72086;BME280;64750;52.134;5.424;2023-12-07T08:11:52;102250.66;;;0.72;93.12
72086;BME280;64750;52.134;5.424;2023-12-07T08:14:19;102240.28;;;0.74;93.27
72086;BME280;64750;52.134;5.424;2023-12-07T08:16:45;102244.63;;;0.75;93.35
72086;BME280;64750;52.134;5.424;2023-12-07T08:19:13;102236.84;;;0.76;93.29
72086;BME280;64750;52.134;5.424;2023-12-07T08:21:40;102254.13;;;0.79;93.33
72086;BME280;64750;52.134;5.424;2023-12-07T08:24:06;102248.91;;;0.74;92.92
72086;BME280;64750;52.134;5.424;2023-12-07T08:26:33;102243.75;;;0.71;93.27
72086;BME280;64750;52.134;5.424;2023-12-07T08:28:59;102244.59;;;0.69;92.80
72086;BME280;64750;52.134;5.424;2023-12-07T08:31:26;102252.34;;;0.70;92.97
72086;BME280;64750;52.134;5.424;2023-12-07T08:33:53;102246.31;;;0.71;93.75
72086;BME280;64750;52.134;5.424;2023-12-07T08:36:20;102242.03;;;0.75;93.39
72086;BME280;64750;52.134;5.424;2023-12-07T08:38:48;102242.03;;;0.75;93.46
72086;BME280;64750;52.134;5.424;2023-12-07T08:41:15;102245.47;;;0.77;93.47
72086;BME280;64750;52.134;5.424;2023-12-07T08:43:41;102237.72;;;0.74;93.47
72086;BME280;64750;52.134;5.424;2023-12-07T08:46:08;102248.94;;;0.77;93.63
72086;BME280;64750;52.134;5.424;2023-12-07T08:48:37;102248.06;;;0.75;93.33
72086;BME280;64750;52.134;5.424;2023-12-07T08:51:08;102249.78;;;0.78;93.93
72086;BME280;64750;52.134;5.424;2023-12-07T08:53:35;102241.19;;;0.79;93.63
72086;BME280;64750;52.134;5.424;2023-12-07T08:56:02;102241.19;;;0.79;93.49
72086;BME280;64750;52.134;5.424;2023-12-07T08:58:29;102242.03;;;0.78;93.57
72086;BME280;64750;52.134;5.424;2023-12-07T09:00:55;102246.34;;;0.82;93.28
72086;BME280;64750;52.134;5.424;2023-12-07T09:03:21;102235.13;;;0.83;93.65
72086;BME280;64750;52.134;5.424;2023-12-07T09:05:54;102229.97;;;0.83;93.25
72086;BME280;64750;52.134;5.424;2023-12-07T09:08:21;102239.44;;;0.78;93.84
72086;BME280;64750;52.134;5.424;2023-12-07T09:10:47;102235.13;;;0.75;93.62
72086;BME280;64750;52.134;5.424;2023-12-07T09:13:16;102235.16;;;0.78;93.52
72086;BME280;64750;52.134;5.424;2023-12-07T09:15:42;102229.13;;;0.81;93.71
72086;BME280;64750;52.134;5.424;2023-12-07T09:18:09;102222.19;;;0.85;93.96
72086;BME280;64750;52.134;5.424;2023-12-07T09:20:39;102223.94;;;0.82;93.52
72086;BME280;64750;52.134;5.424;2023-12-07T09:23:12;102210.13;;;0.82;93.89
72086;BME280;64750;52.134;5.424;2023-12-07T09:25:39;102216.19;;;0.81;93.80
72086;BME280;64750;52.134;5.424;2023-12-07T09:28:07;102225.66;;;0.77;94.14
72086;BME280;64750;52.134;5.424;2023-12-07T09:30:34;102214.41;;;0.74;94.20
72086;BME280;64750;52.134;5.424;2023-12-07T09:33:01;102218.75;;;0.78;93.91
72086;BME280;64750;52.134;5.424;2023-12-07T09:35:31;102223.06;;;0.80;94.69
72086;BME280;64750;52.134;5.424;2023-12-07T09:38:01;102232.56;;;0.81;94.49
72086;BME280;64750;52.134;5.424;2023-12-07T09:40:27;102234.28;;;0.81;94.38
72086;BME280;64750;52.134;5.424;2023-12-07T09:42:55;102230.81;;;0.82;94.29
72086;BME280;64750;52.134;5.424;2023-12-07T09:45:22;102242.03;;;0.79;94.17
72086;BME280;64750;52.134;5.424;2023-12-07T09:47:52;102235.16;;;0.78;94.67
72086;BME280;64750;52.134;5.424;2023-12-07T09:50:21;102239.44;;;0.78;94.76
72086;BME280;64750;52.134;5.424;2023-12-07T09:52:52;102241.16;;;0.73;94.49
72086;BME280;64750;52.134;5.424;2023-12-07T09:55:32;102233.38;;;0.73;94.77
72086;BME280;64750;52.134;5.424;2023-12-07T09:58:00;102235.13;;;0.71;94.60
72086;BME280;64750;52.134;5.424;2023-12-07T10:00:27;102229.06;;;0.70;94.68
72086;BME280;64750;52.134;5.424;2023-12-07T10:02:53;102219.56;;;0.69;94.56
72086;BME280;64750;52.134;5.424;2023-12-07T10:05:21;102222.19;;;0.71;94.93
72086;BME280;64750;52.134;5.424;2023-12-07T10:07:49;102217.00;;;0.75;95.27
72086;BME280;64750;52.134;5.424;2023-12-07T10:10:17;102208.38;;;0.75;94.82
72086;BME280;64750;52.134;5.424;2023-12-07T10:15:14;102188.56;;;0.78;94.58
72086;BME280;64750;52.134;5.424;2023-12-07T10:17:56;102196.31;;;0.80;94.54
72086;BME280;64750;52.134;5.424;2023-12-07T10:20:26;102188.56;;;0.81;94.65
72086;BME280;64750;52.134;5.424;2023-12-07T10:23:07;102179.06;;;0.79;95.04
72086;BME280;64750;52.134;5.424;2023-12-07T10:25:42;102168.72;;;0.80;94.90
72086;BME280;64750;52.134;5.424;2023-12-07T10:28:09;102166.97;;;0.78;94.78
72086;BME280;64750;52.134;5.424;2023-12-07T10:30:39;102165.25;;;0.77;95.07
72086;BME280;64750;52.134;5.424;2023-12-07T10:33:09;102166.97;;;0.78;95.15
72086;BME280;64750;52.134;5.424;2023-12-07T10:35:40;102168.72;;;0.79;95.19
72086;BME280;64750;52.134;5.424;2023-12-07T10:38:08;102165.25;;;0.81;95.33
72086;BME280;64750;52.134;5.424;2023-12-07T10:40:35;102158.34;;;0.82;95.46
72086;BME280;64750;52.134;5.424;2023-12-07T10:43:05;102167.00;;;0.81;95.43
72086;BME280;64750;52.134;5.424;2023-12-07T10:45:33;102167.00;;;0.81;95.23
72086;BME280;64750;52.134;5.424;2023-12-07T10:48:08;102166.13;;;0.82;95.81
72086;BME280;64750;52.134;5.424;2023-12-07T10:50:46;102154.91;;;0.83;95.16
72086;BME280;64750;52.134;5.424;2023-12-07T10:53:27;102142.84;;;0.85;95.81
72086;BME280;64750;52.134;5.424;2023-12-07T10:55:58;102142.00;;;0.86;95.71
72086;BME280;64750;52.134;5.424;2023-12-07T10:58:26;102135.94;;;0.86;95.75
72086;BME280;64750;52.134;5.424;2023-12-07T11:00:53;102134.22;;;0.86;95.63
72086;BME280;64750;52.134;5.424;2023-12-07T11:03:21;102133.34;;;0.84;95.42
72086;BME280;64750;52.134;5.424;2023-12-07T11:05:48;102135.94;;;0.84;95.95
72086;BME280;64750;52.134;5.424;2023-12-07T11:08:37;102137.66;;;0.82;95.72
72086;BME280;64750;52.134;5.424;2023-12-07T11:11:27;102126.44;;;0.85;96.02
72086;BME280;64750;52.134;5.424;2023-12-07T11:14:02;102125.56;;;0.87;95.84
72086;BME280;64750;52.134;5.424;2023-12-07T11:16:39;102124.72;;;0.88;96.22
72086;BME280;64750;52.134;5.424;2023-12-07T11:22:01;102115.25;;;0.89;95.83
72086;BME280;64750;52.134;5.424;2023-12-07T11:24:27;102114.38;;;0.90;96.11
72086;BME280;64750;52.134;5.424;2023-12-07T11:26:58;102101.44;;;0.91;96.42
72086;BME280;64750;52.134;5.424;2023-12-07T11:29:25;102086.75;;;0.90;95.60
72086;BME280;64750;52.134;5.424;2023-12-07T11:31:56;102085.91;;;0.91;96.18
72086;BME280;64750;52.134;5.424;2023-12-07T11:37:02;102078.16;;;0.91;95.82
72086;BME280;64750;52.134;5.424;2023-12-07T11:39:34;102077.28;;;0.92;96.57
72086;BME280;64750;52.134;5.424;2023-12-07T11:42:11;102070.38;;;0.93;96.17
72086;BME280;64750;52.134;5.424;2023-12-07T11:44:39;102063.47;;;0.96;95.92
72086;BME280;64750;52.134;5.424;2023-12-07T11:47:06;102058.28;;;1.00;96.61
72086;BME280;64750;52.134;5.424;2023-12-07T11:49:33;102062.59;;;1.02;96.59
72086;BME280;64750;52.134;5.424;2023-12-07T11:52:19;102071.22;;;1.04;96.50
72086;BME280;64750;52.134;5.424;2023-12-07T11:54:47;102065.16;;;1.04;96.44
72086;BME280;64750;52.134;5.424;2023-12-07T11:57:15;102060.88;;;1.06;96.66
72086;BME280;64750;52.134;5.424;2023-12-07T11:59:44;102060.88;;;1.06;96.83
72086;BME280;64750;52.134;5.424;2023-12-07T12:02:11;102061.72;;;1.06;96.79
72086;BME280;64750;52.134;5.424;2023-12-07T12:04:39;102058.25;;;1.09;97.00
72086;BME280;64750;52.134;5.424;2023-12-07T12:07:07;102047.06;;;1.08;96.40
72086;BME280;64750;52.134;5.424;2023-12-07T12:09:34;102042.72;;;1.09;97.18
72086;BME280;64750;52.134;5.424;2023-12-07T12:12:01;102042.72;;;1.09;96.81
72086;BME280;64750;52.134;5.424;2023-12-07T12:14:28;102034.97;;;1.07;97.51
72086;BME280;64750;52.134;5.424;2023-12-07T12:16:56;102025.50;;;1.08;97.28
72086;BME280;64750;52.134;5.424;2023-12-07T12:19:23;102014.25;;;1.09;97.34
72086;BME280;64750;52.134;5.424;2023-12-07T12:22:01;102015.97;;;1.11;97.61
72086;BME280;64750;52.134;5.424;2023-12-07T12:24:32;102023.75;;;1.13;97.29
72086;BME280;64750;52.134;5.424;2023-12-07T12:26:59;102015.09;;;1.14;97.71
72086;BME280;64750;52.134;5.424;2023-12-07T12:29:26;102009.94;;;1.17;97.68
72086;BME280;64750;52.134;5.424;2023-12-07T12:32:01;102007.34;;;1.19;98.18
72086;BME280;64750;52.134;5.424;2023-12-07T12:34:29;102004.72;;;1.20;98.21
72086;BME280;64750;52.134;5.424;2023-12-07T12:36:56;102002.16;;;1.25;98.25
72086;BME280;64750;52.134;5.424;2023-12-07T12:39:29;101991.75;;;1.28;98.61
72086;BME280;64750;52.134;5.424;2023-12-07T12:42:00;101990.88;;;1.30;97.91
72086;BME280;64750;52.134;5.424;2023-12-07T12:44:28;101983.13;;;1.34;98.25
72086;BME280;64750;52.134;5.424;2023-12-07T12:47:06;101981.38;;;1.36;98.03
72086;BME280;64750;52.134;5.424;2023-12-07T12:49:41;101966.69;;;1.38;97.99
72086;BME280;64750;52.134;5.424;2023-12-07T12:52:11;101961.53;;;1.38;97.82
72086;BME280;64750;52.134;5.424;2023-12-07T12:54:39;101961.53;;;1.38;98.40
72086;BME280;64750;52.134;5.424;2023-12-07T12:57:09;101956.31;;;1.41;98.20
72086;BME280;64750;52.134;5.424;2023-12-07T12:59:36;101952.00;;;1.43;98.49
72086;BME280;64750;52.134;5.424;2023-12-07T13:02:02;101938.19;;;1.45;97.87
72086;BME280;64750;52.134;5.424;2023-12-07T13:04:32;101934.72;;;1.48;97.68
72086;BME280;64750;52.134;5.424;2023-12-07T13:07:03;101932.09;;;1.50;98.78
72086;BME280;64750;52.134;5.424;2023-12-07T13:09:29;101931.22;;;1.52;98.64
72086;BME280;64750;52.134;5.424;2023-12-07T13:11:58;101918.28;;;1.55;98.33
72086;BME280;64750;52.134;5.424;2023-12-07T13:14:26;101913.94;;;1.56;98.47
72086;BME280;64750;52.134;5.424;2023-12-07T13:16:53;101909.59;;;1.56;98.73